Thunder radar more information blitzortung!


Radar de pluja more information rain snow radar


Visita la nostra xarxa de llocs de meteo:

Template documentation
and downloads

And another site



No particular awareness of the weather is required.    There are no Weather-warnings

Pagina Historial Weather Underground text

Diari Resum February 3, 2018 Unitats:  Tant    Imperial   Mètric
« Previous Dia
SegĂźent Dia »
Diari Setmana Mensual Anual Personalitzada
  Maxima: Minima: Media:
Temperatura: TemperatureC °F /  -17.8 °C 0.9 °F /  -17.3 °C 6.1 °F /  -14.4 °C
Punt de rosada: DewpointC °F /  -17.8 °C -9.3 °F /  -22.9 °C -3.8 °F /  -19.9 °C
Humitat: Humidity % 39 % 49 %
Wind Speed: WindSpeedKMH mph /  0 km/h - 8.3 mph /  13.4 km/h
RĂ fegues de vent: WindSpeedGustKMH mph /  0 km/h - -
Vent:- - WSW
Pression baro: PressurehPa in /  0 hPa 1007.0 in /  34097 hPa -
Precipitacions: 0.0 in /  0 mm    
Historical Graphs
 
 
Dades de taula per February 3, 2018
Temps Temperatura Punt de rosada Pression baro Vent Wind Speed RĂ fegues de vent Humitat Rainfall Rate (Hourly)
TemperatureC °F /  -17.8 °C DewpointC °F /  -17.8 °C PressurehPa in /  0 hPa Calm     Humidity % HourlyPrecipMM in /  0 mm
00:03 3.5 °F /  -15.8 °C -7.9 °F /  -22.2 °C 1008.0 in /  34130.9 hPa SSE 3.7 mph /  6 km/h 3.7 mph /  6 km/h 43 % 0.0 in /  0 mm
00:08 3.5 °F /  -15.8 °C -7.9 °F /  -22.2 °C 1008.0 in /  34130.9 hPa NNW 6.1 mph /  9.8 km/h 6.1 mph /  9.8 km/h 43 % 0.0 in /  0 mm
00:18 3.5 °F /  -15.8 °C -7.9 °F /  -22.2 °C 1008.0 in /  34130.9 hPa WSW 4.7 mph /  7.6 km/h 4.7 mph /  7.6 km/h 43 % 0.0 in /  0 mm
00:23 3.6 °F /  -15.8 °C -7.8 °F /  -22.1 °C 1008.0 in /  34130.9 hPa SW 3.7 mph /  6 km/h 3.7 mph /  6 km/h 43 % 0.0 in /  0 mm
00:28 3.7 °F /  -15.7 °C -7.7 °F /  -22.1 °C 1008.0 in /  34130.9 hPa NNW 3.7 mph /  6 km/h 3.7 mph /  6 km/h 43 % 0.0 in /  0 mm
00:33 3.7 °F /  -15.7 °C -7.7 °F /  -22.1 °C 1007.0 in /  34097 hPa WNW 3.7 mph /  6 km/h 3.7 mph /  6 km/h 43 % 0.0 in /  0 mm
00:38 3.7 °F /  -15.7 °C -7.4 °F /  -21.9 °C 1007.0 in /  34097 hPa WSW 5.8 mph /  9.3 km/h 5.8 mph /  9.3 km/h 44 % 0.0 in /  0 mm
00:43 3.8 °F /  -15.7 °C -7.7 °F /  -22.1 °C 1007.0 in /  34097 hPa SW 5.6 mph /  9 km/h 5.6 mph /  9 km/h 43 % 0.0 in /  0 mm
00:48 3.7 °F /  -15.7 °C -7.7 °F /  -22.1 °C 1008.0 in /  34130.9 hPa WSW 3.7 mph /  6 km/h 3.9 mph /  6.3 km/h 43 % 0.0 in /  0 mm
00:53 3.6 °F /  -15.8 °C -7.8 °F /  -22.1 °C 1008.0 in /  34130.9 hPa WSW 3.7 mph /  6 km/h 4.2 mph /  6.8 km/h 43 % 0.0 in /  0 mm
01:03 3.7 °F /  -15.7 °C -8.1 °F /  -22.3 °C 1008.0 in /  34130.9 hPa ESE 3.7 mph /  6 km/h 3.7 mph /  6 km/h 42 % 0.0 in /  0 mm
01:08 3.7 °F /  -15.7 °C -7.7 °F /  -22.1 °C 1008.0 in /  34130.9 hPa WNW 7.4 mph /  11.9 km/h 7.4 mph /  11.9 km/h 43 % 0.0 in /  0 mm
01:13 4.0 °F /  -15.6 °C -7.5 °F /  -21.9 °C 1008.0 in /  34130.9 hPa NNW 11.9 mph /  19.2 km/h 11.9 mph /  19.2 km/h 43 % 0.0 in /  0 mm
01:18 4.0 °F /  -15.6 °C -7.8 °F /  -22.1 °C 1008.0 in /  34130.9 hPa SW 7.4 mph /  11.9 km/h 7.4 mph /  11.9 km/h 42 % 0.0 in /  0 mm
01:23 4.2 °F /  -15.4 °C -7.3 °F /  -21.8 °C 1008.0 in /  34130.9 hPa WNW 12.2 mph /  19.6 km/h 12.2 mph /  19.6 km/h 43 % 0.0 in /  0 mm
01:28 4.2 °F /  -15.4 °C -7.6 °F /  -22 °C 1008.0 in /  34130.9 hPa West 13.0 mph /  20.9 km/h 13.0 mph /  20.9 km/h 42 % 0.0 in /  0 mm
01:33 4.3 °F /  -15.4 °C -7.5 °F /  -21.9 °C 1008.0 in /  34130.9 hPa SW 5.6 mph /  9 km/h 6.1 mph /  9.8 km/h 42 % 0.0 in /  0 mm
01:38 4.4 °F /  -15.3 °C -7.7 °F /  -22.1 °C 1008.0 in /  34130.9 hPa SW 11.1 mph /  17.9 km/h 11.1 mph /  17.9 km/h 41 % 0.0 in /  0 mm
01:43 4.4 °F /  -15.3 °C -7.7 °F /  -22.1 °C 1008.0 in /  34130.9 hPa West 5.6 mph /  9 km/h 6.4 mph /  10.3 km/h 41 % 0.0 in /  0 mm
01:48 4.3 °F /  -15.4 °C -7.8 °F /  -22.1 °C 1008.0 in /  34130.9 hPa West 7.6 mph /  12.2 km/h 7.6 mph /  12.2 km/h 41 % 0.0 in /  0 mm
01:53 4.2 °F /  -15.4 °C -7.9 °F /  -22.2 °C 1008.0 in /  34130.9 hPa WSW 6.1 mph /  9.8 km/h 6.1 mph /  9.8 km/h 41 % 0.0 in /  0 mm
01:58 4.1 °F /  -15.5 °C -8.0 °F /  -22.2 °C 1008.0 in /  34130.9 hPa WSW 6.4 mph /  10.3 km/h 6.4 mph /  10.3 km/h 41 % 0.0 in /  0 mm
02:03 4.1 °F /  -15.5 °C -8.0 °F /  -22.2 °C 1007.0 in /  34097 hPa West 9.3 mph /  15 km/h 9.3 mph /  15 km/h 41 % 0.0 in /  0 mm
02:08 4.0 °F /  -15.6 °C -8.1 °F /  -22.3 °C 1007.0 in /  34097 hPa WSW 9.3 mph /  15 km/h 9.3 mph /  15 km/h 41 % 0.0 in /  0 mm
02:13 4.0 °F /  -15.6 °C -8.4 °F /  -22.4 °C 1007.0 in /  34097 hPa West 3.9 mph /  6.3 km/h 6.9 mph /  11.1 km/h 40 % 0.0 in /  0 mm
02:18 3.9 °F /  -15.6 °C -8.5 °F /  -22.5 °C 1008.0 in /  34130.9 hPa WNW 6.1 mph /  9.8 km/h 6.1 mph /  9.8 km/h 40 % 0.0 in /  0 mm
02:23 3.9 °F /  -15.6 °C -8.5 °F /  -22.5 °C 1008.0 in /  34130.9 hPa WNW 6.1 mph /  9.8 km/h 6.1 mph /  9.8 km/h 40 % 0.0 in /  0 mm
02:28 3.8 °F /  -15.7 °C -8.6 °F /  -22.6 °C 1008.0 in /  34130.9 hPa WNW 6.1 mph /  9.8 km/h 6.1 mph /  9.8 km/h 40 % 0.0 in /  0 mm
02:33 3.8 °F /  -15.7 °C -8.9 °F /  -22.7 °C 1008.0 in /  34130.9 hPa WNW 6.1 mph /  9.8 km/h 6.1 mph /  9.8 km/h 39 % 0.0 in /  0 mm
02:38 3.7 °F /  -15.7 °C -8.7 °F /  -22.6 °C 1008.0 in /  34130.9 hPa WNW 6.1 mph /  9.8 km/h 6.1 mph /  9.8 km/h 40 % 0.0 in /  0 mm
02:43 3.5 °F /  -15.8 °C -8.8 °F /  -22.7 °C 1008.0 in /  34130.9 hPa WNW 5.6 mph /  9 km/h 5.8 mph /  9.3 km/h 40 % 0.0 in /  0 mm
02:48 3.3 °F /  -15.9 °C -9.1 °F /  -22.8 °C 1008.0 in /  34130.9 hPa West 5.3 mph /  8.5 km/h 5.3 mph /  8.5 km/h 40 % 0.0 in /  0 mm
02:53 3.1 °F /  -16.1 °C -9.2 °F /  -22.9 °C 1008.0 in /  34130.9 hPa West 5.6 mph /  9 km/h 5.6 mph /  9 km/h 40 % 0.0 in /  0 mm
02:58 3.0 °F /  -16.1 °C -9.0 °F /  -22.8 °C 1008.0 in /  34130.9 hPa WSW 3.7 mph /  6 km/h 4.2 mph /  6.8 km/h 41 % 0.0 in /  0 mm
03:03 3.1 °F /  -16.1 °C -8.9 °F /  -22.7 °C 1009.0 in /  34164.7 hPa West 5.6 mph /  9 km/h 5.8 mph /  9.3 km/h 41 % 0.0 in /  0 mm
03:08 3.1 °F /  -16.1 °C -8.9 °F /  -22.7 °C 1009.0 in /  34164.7 hPa WNW 11.1 mph /  17.9 km/h 11.1 mph /  17.9 km/h 41 % 0.0 in /  0 mm
03:13 3.2 °F /  -16 °C -8.8 °F /  -22.7 °C 1009.0 in /  34164.7 hPa West 5.6 mph /  9 km/h 5.6 mph /  9 km/h 41 % 0.0 in /  0 mm
03:18 3.1 °F /  -16.1 °C -8.9 °F /  -22.7 °C 1009.0 in /  34164.7 hPa WSW 4.7 mph /  7.6 km/h 5.3 mph /  8.5 km/h 41 % 0.0 in /  0 mm
03:23 3.1 °F /  -16.1 °C -8.9 °F /  -22.7 °C 1009.0 in /  34164.7 hPa WSW 5.6 mph /  9 km/h 5.6 mph /  9 km/h 41 % 0.0 in /  0 mm
03:28 3.4 °F /  -15.9 °C -8.6 °F /  -22.6 °C 1009.0 in /  34164.7 hPa WNW 9.3 mph /  15 km/h 9.3 mph /  15 km/h 41 % 0.0 in /  0 mm
03:33 3.6 °F /  -15.8 °C -8.4 °F /  -22.4 °C 1009.0 in /  34164.7 hPa West 5.6 mph /  9 km/h 5.8 mph /  9.3 km/h 41 % 0.0 in /  0 mm
03:38 3.5 °F /  -15.8 °C -8.6 °F /  -22.6 °C 1009.0 in /  34164.7 hPa SW 9.3 mph /  15 km/h 9.3 mph /  15 km/h 41 % 0.0 in /  0 mm
03:43 3.2 °F /  -16 °C -8.8 °F /  -22.7 °C 1009.0 in /  34164.7 hPa SW 3.7 mph /  6 km/h 3.9 mph /  6.3 km/h 41 % 0.0 in /  0 mm
03:48 3.0 °F /  -16.1 °C -9.0 °F /  -22.8 °C 1009.0 in /  34164.7 hPa SW 3.7 mph /  6 km/h 4.7 mph /  7.6 km/h 41 % 0.0 in /  0 mm
03:53 2.8 °F /  -16.2 °C -9.2 °F /  -22.9 °C 1009.0 in /  34164.7 hPa SW 5.8 mph /  9.3 km/h 5.8 mph /  9.3 km/h 41 % 0.0 in /  0 mm
03:58 2.6 °F /  -16.3 °C -9.3 °F /  -22.9 °C 1009.0 in /  34164.7 hPa West 5.6 mph /  9 km/h 5.6 mph /  9 km/h 41 % 0.0 in /  0 mm
04:03 2.5 °F /  -16.4 °C -9.1 °F /  -22.8 °C 1009.0 in /  34164.7 hPa WSW 3.9 mph /  6.3 km/h 4.2 mph /  6.8 km/h 42 % 0.0 in /  0 mm
04:08 2.4 °F /  -16.4 °C -9.2 °F /  -22.9 °C 1009.0 in /  34164.7 hPa West 3.9 mph /  6.3 km/h 3.9 mph /  6.3 km/h 42 % 0.0 in /  0 mm
04:13 2.3 °F /  -16.5 °C -9.3 °F /  -22.9 °C 1009.0 in /  34164.7 hPa WSW 4.7 mph /  7.6 km/h 5.0 mph /  8 km/h 42 % 0.0 in /  0 mm
04:18 2.3 °F /  -16.5 °C -9.3 °F /  -22.9 °C 1010.0 in /  34198.6 hPa West 4.7 mph /  7.6 km/h 4.7 mph /  7.6 km/h 42 % 0.0 in /  0 mm
04:23 2.8 °F /  -16.2 °C -8.9 °F /  -22.7 °C 1010.0 in /  34198.6 hPa West 4.7 mph /  7.6 km/h 4.7 mph /  7.6 km/h 42 % 0.0 in /  0 mm
04:28 2.9 °F /  -16.2 °C -8.8 °F /  -22.7 °C 1010.0 in /  34198.6 hPa West 4.7 mph /  7.6 km/h 4.7 mph /  7.6 km/h 42 % 0.0 in /  0 mm
04:33 2.9 °F /  -16.2 °C -8.5 °F /  -22.5 °C 1010.0 in /  34198.6 hPa SW 2.6 mph /  4.2 km/h 6.9 mph /  11.1 km/h 43 % 0.0 in /  0 mm
04:38 2.8 °F /  -16.2 °C -8.6 °F /  -22.6 °C 1010.0 in /  34198.6 hPa WNW 9.7 mph /  15.6 km/h 9.7 mph /  15.6 km/h 43 % 0.0 in /  0 mm
04:43 2.8 °F /  -16.2 °C -8.6 °F /  -22.6 °C 1010.0 in /  34198.6 hPa West 2.3 mph /  3.7 km/h 3.5 mph /  5.6 km/h 43 % 0.0 in /  0 mm
04:48 2.8 °F /  -16.2 °C -8.3 °F /  -22.4 °C 1010.0 in /  34198.6 hPa West 2.3 mph /  3.7 km/h 3.5 mph /  5.6 km/h 44 % 0.0 in /  0 mm
04:53 2.8 °F /  -16.2 °C -8.3 °F /  -22.4 °C 1010.0 in /  34198.6 hPa West 2.3 mph /  3.7 km/h 3.5 mph /  5.6 km/h 44 % 0.0 in /  0 mm
04:58 2.6 °F /  -16.3 °C -8.4 °F /  -22.4 °C 1010.0 in /  34198.6 hPa WNW 7.4 mph /  11.9 km/h 7.4 mph /  11.9 km/h 44 % 0.0 in /  0 mm
05:03 2.6 °F /  -16.3 °C -8.4 °F /  -22.4 °C 1010.0 in /  34198.6 hPa WNW 5.6 mph /  9 km/h 5.6 mph /  9 km/h 44 % 0.0 in /  0 mm
05:08 2.6 °F /  -16.3 °C -8.2 °F /  -22.3 °C 1010.0 in /  34198.6 hPa WNW 5.6 mph /  9 km/h 5.6 mph /  9 km/h 45 % 0.0 in /  0 mm
05:13 2.5 °F /  -16.4 °C -8.3 °F /  -22.4 °C 1010.0 in /  34198.6 hPa WSW 9.3 mph /  15 km/h 9.3 mph /  15 km/h 45 % 0.0 in /  0 mm
05:18 2.4 °F /  -16.4 °C -8.3 °F /  -22.4 °C 1010.0 in /  34198.6 hPa WSW 5.6 mph /  9 km/h 5.6 mph /  9 km/h 45 % 0.0 in /  0 mm
05:23 2.3 °F /  -16.5 °C -8.4 °F /  -22.4 °C 1010.0 in /  34198.6 hPa WSW 3.7 mph /  6 km/h 5.0 mph /  8 km/h 45 % 0.0 in /  0 mm
05:28 2.3 °F /  -16.5 °C -8.4 °F /  -22.4 °C 1010.0 in /  34198.6 hPa West 3.7 mph /  6 km/h 3.7 mph /  6 km/h 45 % 0.0 in /  0 mm
05:33 2.4 °F /  -16.4 °C -8.1 °F /  -22.3 °C 1010.0 in /  34198.6 hPa West 9.3 mph /  15 km/h 9.3 mph /  15 km/h 46 % 0.0 in /  0 mm
05:38 2.4 °F /  -16.4 °C -8.1 °F /  -22.3 °C 1010.0 in /  34198.6 hPa West 5.6 mph /  9 km/h 5.6 mph /  9 km/h 46 % 0.0 in /  0 mm
05:43 2.2 °F /  -16.6 °C -8.2 °F /  -22.3 °C 1010.0 in /  34198.6 hPa WNW 5.6 mph /  9 km/h 5.6 mph /  9 km/h 46 % 0.0 in /  0 mm
05:48 2.2 °F /  -16.6 °C -8.2 °F /  -22.3 °C 1010.0 in /  34198.6 hPa WSW 4.2 mph /  6.8 km/h 4.2 mph /  6.8 km/h 46 % 0.0 in /  0 mm
05:53 2.0 °F /  -16.7 °C -8.4 °F /  -22.4 °C 1010.0 in /  34198.6 hPa WSW 5.6 mph /  9 km/h 5.6 mph /  9 km/h 46 % 0.0 in /  0 mm
05:58 1.9 °F /  -16.7 °C -8.5 °F /  -22.5 °C 1010.0 in /  34198.6 hPa SW 3.7 mph /  6 km/h 3.7 mph /  6 km/h 46 % 0.0 in /  0 mm
06:03 1.9 °F /  -16.7 °C -8.5 °F /  -22.5 °C 1010.0 in /  34198.6 hPa ENE 3.9 mph /  6.3 km/h 3.9 mph /  6.3 km/h 46 % 0.0 in /  0 mm
06:08 1.9 °F /  -16.7 °C -8.5 °F /  -22.5 °C 1010.0 in /  34198.6 hPa Calm     46 % 0.0 in /  0 mm
06:13 2.0 °F /  -16.7 °C -8.4 °F /  -22.4 °C 1010.0 in /  34198.6 hPa WSW 7.4 mph /  11.9 km/h 7.4 mph /  11.9 km/h 46 % 0.0 in /  0 mm
06:18 2.1 °F /  -16.6 °C -8.1 °F /  -22.3 °C 1009.0 in /  34164.7 hPa WSW 5.3 mph /  8.5 km/h 5.3 mph /  8.5 km/h 47 % 0.0 in /  0 mm
06:23 2.0 °F /  -16.7 °C -8.2 °F /  -22.3 °C 1009.0 in /  34164.7 hPa WSW 4.7 mph /  7.6 km/h 4.7 mph /  7.6 km/h 47 % 0.0 in /  0 mm
06:28 2.1 °F /  -16.6 °C -8.1 °F /  -22.3 °C 1009.0 in /  34164.7 hPa WSW 5.6 mph /  9 km/h 5.6 mph /  9 km/h 47 % 0.0 in /  0 mm
06:33 2.1 °F /  -16.6 °C -8.1 °F /  -22.3 °C 1010.0 in /  34198.6 hPa West 3.2 mph /  5.1 km/h   47 % 0.0 in /  0 mm
06:38 2.0 °F /  -16.7 °C -8.4 °F /  -22.4 °C 1010.0 in /  34198.6 hPa Calm     46 % 0.0 in /  0 mm
06:43 2.0 °F /  -16.7 °C -8.4 °F /  -22.4 °C 1010.0 in /  34198.6 hPa West 1.9 mph /  3.1 km/h 1.9 mph /  3.1 km/h 46 % 0.0 in /  0 mm
06:48 2.0 °F /  -16.7 °C -8.4 °F /  -22.4 °C 1010.0 in /  34198.6 hPa NW 2.6 mph /  4.2 km/h   46 % 0.0 in /  0 mm
06:53 1.9 °F /  -16.7 °C -8.2 °F /  -22.3 °C 1010.0 in /  34198.6 hPa NNE 1.9 mph /  3.1 km/h 2.3 mph /  3.7 km/h 47 % 0.0 in /  0 mm
06:58 1.8 °F /  -16.8 °C -8.3 °F /  -22.4 °C 1010.0 in /  34198.6 hPa NW 1.9 mph /  3.1 km/h   47 % 0.0 in /  0 mm
07:03 1.8 °F /  -16.8 °C -8.3 °F /  -22.4 °C 1010.0 in /  34198.6 hPa NW 1.9 mph /  3.1 km/h 1.9 mph /  3.1 km/h 47 % 0.0 in /  0 mm
07:08 1.6 °F /  -16.9 °C -8.5 °F /  -22.5 °C 1010.0 in /  34198.6 hPa Calm     47 % 0.0 in /  0 mm
07:13 1.4 °F /  -17 °C -8.7 °F /  -22.6 °C 1010.0 in /  34198.6 hPa ENE 3.9 mph /  6.3 km/h 3.9 mph /  6.3 km/h 47 % 0.0 in /  0 mm
07:18 1.3 °F /  -17.1 °C -8.8 °F /  -22.7 °C 1010.0 in /  34198.6 hPa Calm     47 % 0.0 in /  0 mm
07:23 1.3 °F /  -17.1 °C -8.5 °F /  -22.5 °C 1010.0 in /  34198.6 hPa NE 3.9 mph /  6.3 km/h 3.9 mph /  6.3 km/h 48 % 0.0 in /  0 mm
07:28 1.1 °F /  -17.2 °C -8.7 °F /  -22.6 °C 1010.0 in /  34198.6 hPa NE 3.7 mph /  6 km/h 3.7 mph /  6 km/h 48 % 0.0 in /  0 mm
07:33 1.0 °F /  -17.2 °C -8.8 °F /  -22.7 °C 1010.7 in /  34222.3 hPa NNW 1.9 mph /  3.1 km/h 1.9 mph /  3.1 km/h 48 % 0.0 in /  0 mm
07:38 1.0 °F /  -17.2 °C -8.8 °F /  -22.7 °C 1010.7 in /  34222.3 hPa WSW 3.9 mph /  6.3 km/h   48 % 0.0 in /  0 mm
07:43 1.0 °F /  -17.2 °C -8.8 °F /  -22.7 °C 1010.7 in /  34222.3 hPa SW 3.7 mph /  6 km/h 3.7 mph /  6 km/h 48 % 0.0 in /  0 mm
07:48 0.9 °F /  -17.3 °C -8.9 °F /  -22.7 °C 1010.7 in /  34222.3 hPa WSW 3.7 mph /  6 km/h 3.7 mph /  6 km/h 48 % 0.0 in /  0 mm
07:53 1.1 °F /  -17.2 °C -8.4 °F /  -22.4 °C 1010.7 in /  34222.3 hPa NNW 11.1 mph /  17.9 km/h 11.1 mph /  17.9 km/h 49 % 0.0 in /  0 mm
07:58 1.4 °F /  -17 °C -8.2 °F /  -22.3 °C 1010.7 in /  34222.3 hPa NW 9.3 mph /  15 km/h 9.3 mph /  15 km/h 49 % 0.0 in /  0 mm
08:03 1.6 °F /  -16.9 °C -8.0 °F /  -22.2 °C 1010.7 in /  34222.3 hPa WSW 11.4 mph /  18.3 km/h 11.4 mph /  18.3 km/h 49 % 0.0 in /  0 mm
08:08 1.8 °F /  -16.8 °C -7.8 °F /  -22.1 °C 1010.7 in /  34222.3 hPa WSW 5.6 mph /  9 km/h 5.6 mph /  9 km/h 49 % 0.0 in /  0 mm
08:13 1.9 °F /  -16.7 °C -7.7 °F /  -22.1 °C 1010.7 in /  34222.3 hPa SW 5.6 mph /  9 km/h 5.6 mph /  9 km/h 49 % 0.0 in /  0 mm
08:18 2.0 °F /  -16.7 °C -7.6 °F /  -22 °C 1011.7 in /  34256.2 hPa WNW 1.9 mph /  3.1 km/h 1.9 mph /  3.1 km/h 49 % 0.0 in /  0 mm
08:23 2.2 °F /  -16.6 °C -7.4 °F /  -21.9 °C 1011.7 in /  34256.2 hPa SE 4.2 mph /  6.8 km/h 4.2 mph /  6.8 km/h 49 % 0.0 in /  0 mm
08:28 2.5 °F /  -16.4 °C -7.2 °F /  -21.8 °C 1011.7 in /  34256.2 hPa ENE 4.2 mph /  6.8 km/h 4.2 mph /  6.8 km/h 49 % 0.0 in /  0 mm
08:33 2.6 °F /  -16.3 °C -7.1 °F /  -21.7 °C 1011.7 in /  34256.2 hPa West 5.6 mph /  9 km/h 5.6 mph /  9 km/h 49 % 0.0 in /  0 mm
08:38 3.0 °F /  -16.1 °C -6.7 °F /  -21.5 °C 1011.7 in /  34256.2 hPa NE 3.9 mph /  6.3 km/h   49 % 0.0 in /  0 mm
08:43 3.1 °F /  -16.1 °C -6.6 °F /  -21.4 °C 1011.7 in /  34256.2 hPa WSW 2.3 mph /  3.7 km/h 2.3 mph /  3.7 km/h 49 % 0.0 in /  0 mm
08:48 3.1 °F /  -16.1 °C -6.6 °F /  -21.4 °C 1011.7 in /  34256.2 hPa NW 3.9 mph /  6.3 km/h 3.9 mph /  6.3 km/h 49 % 0.0 in /  0 mm
08:53 3.2 °F /  -16 °C -6.5 °F /  -21.4 °C 1011.7 in /  34256.2 hPa NW 3.7 mph /  6 km/h 3.7 mph /  6 km/h 49 % 0.0 in /  0 mm
08:58 3.3 °F /  -15.9 °C -6.4 °F /  -21.3 °C 1011.7 in /  34256.2 hPa NNW 7.4 mph /  11.9 km/h 7.4 mph /  11.9 km/h 49 % 0.0 in /  0 mm
09:03 3.6 °F /  -15.8 °C -6.1 °F /  -21.2 °C 1011.7 in /  34256.2 hPa WSW 6.4 mph /  10.3 km/h 6.4 mph /  10.3 km/h 49 % 0.0 in /  0 mm
09:08 3.7 °F /  -15.7 °C -6.1 °F /  -21.2 °C 1011.7 in /  34256.2 hPa WNW 4.7 mph /  7.6 km/h 4.7 mph /  7.6 km/h 49 % 0.0 in /  0 mm
09:13 3.9 °F /  -15.6 °C -5.8 °F /  -21 °C 1011.7 in /  34256.2 hPa WSW 7.4 mph /  11.9 km/h 7.4 mph /  11.9 km/h 49 % 0.0 in /  0 mm
09:18 4.1 °F /  -15.5 °C -5.7 °F /  -20.9 °C 1011.7 in /  34256.2 hPa NW 6.4 mph /  10.3 km/h 6.4 mph /  10.3 km/h 49 % 0.0 in /  0 mm
09:23 4.2 °F /  -15.4 °C -5.6 °F /  -20.9 °C 1011.7 in /  34256.2 hPa WNW 7.4 mph /  11.9 km/h 7.4 mph /  11.9 km/h 49 % 0.0 in /  0 mm
09:28 4.6 °F /  -15.2 °C -5.2 °F /  -20.7 °C 1011.7 in /  34256.2 hPa West 7.4 mph /  11.9 km/h 7.4 mph /  11.9 km/h 49 % 0.0 in /  0 mm
09:33 4.7 °F /  -15.2 °C -5.1 °F /  -20.6 °C 1011.7 in /  34256.2 hPa WSW 11.1 mph /  17.9 km/h 11.1 mph /  17.9 km/h 49 % 0.0 in /  0 mm
09:38 4.8 °F /  -15.1 °C -5.1 °F /  -20.6 °C 1011.7 in /  34256.2 hPa WNW 9.7 mph /  15.6 km/h 9.7 mph /  15.6 km/h 49 % 0.0 in /  0 mm
09:43 5.2 °F /  -14.9 °C -4.4 °F /  -20.2 °C 1011.7 in /  34256.2 hPa West 5.6 mph /  9 km/h 5.6 mph /  9 km/h 50 % 0.0 in /  0 mm
09:48 5.3 °F /  -14.8 °C -4.3 °F /  -20.2 °C 1011.7 in /  34256.2 hPa NW 6.4 mph /  10.3 km/h 6.4 mph /  10.3 km/h 50 % 0.0 in /  0 mm
09:53 5.6 °F /  -14.7 °C -4.0 °F /  -20 °C 1011.7 in /  34256.2 hPa West 3.7 mph /  6 km/h 3.7 mph /  6 km/h 50 % 0.0 in /  0 mm
09:58 5.7 °F /  -14.6 °C -3.9 °F /  -19.9 °C 1011.7 in /  34256.2 hPa WSW 14.8 mph /  23.8 km/h 14.8 mph /  23.8 km/h 50 % 0.0 in /  0 mm
10:03 6.1 °F /  -14.4 °C -3.6 °F /  -19.8 °C 1011.7 in /  34256.2 hPa West 3.7 mph /  6 km/h 3.7 mph /  6 km/h 50 % 0.0 in /  0 mm
10:08 5.9 °F /  -14.5 °C -3.7 °F /  -19.8 °C 1011.7 in /  34256.2 hPa WNW 11.1 mph /  17.9 km/h 11.1 mph /  17.9 km/h 50 % 0.0 in /  0 mm
10:13 6.3 °F /  -14.3 °C -3.4 °F /  -19.7 °C 1011.7 in /  34256.2 hPa West 5.6 mph /  9 km/h 5.6 mph /  9 km/h 50 % 0.0 in /  0 mm
10:18 6.5 °F /  -14.2 °C -3.2 °F /  -19.6 °C 1011.7 in /  34256.2 hPa West 11.1 mph /  17.9 km/h 11.1 mph /  17.9 km/h 50 % 0.0 in /  0 mm
10:24 6.6 °F /  -14.1 °C -3.1 °F /  -19.5 °C 1011.7 in /  34256.2 hPa West 14.8 mph /  23.8 km/h 14.8 mph /  23.8 km/h 50 % 0.0 in /  0 mm
10:29 6.7 °F /  -14.1 °C -3.3 °F /  -19.6 °C 1011.7 in /  34256.2 hPa West 11.1 mph /  17.9 km/h 11.1 mph /  17.9 km/h 49 % 0.0 in /  0 mm
10:34 6.7 °F /  -14.1 °C -3.3 °F /  -19.6 °C 1011.7 in /  34256.2 hPa SSW 13.0 mph /  20.9 km/h 13.0 mph /  20.9 km/h 49 % 0.0 in /  0 mm
10:39 6.7 °F /  -14.1 °C -3.3 °F /  -19.6 °C 1011.7 in /  34256.2 hPa West 16.7 mph /  26.9 km/h 16.7 mph /  26.9 km/h 49 % 0.0 in /  0 mm
10:44 6.9 °F /  -13.9 °C -3.1 °F /  -19.5 °C 1012.8 in /  34293.4 hPa WSW 9.5 mph /  15.3 km/h 9.5 mph /  15.3 km/h 49 % 0.0 in /  0 mm
10:49 7.1 °F /  -13.8 °C -2.9 °F /  -19.4 °C 1012.8 in /  34293.4 hPa SW 16.7 mph /  26.9 km/h 16.7 mph /  26.9 km/h 49 % 0.0 in /  0 mm
10:54 7.2 °F /  -13.8 °C -2.8 °F /  -19.3 °C 1012.8 in /  34293.4 hPa NW 11.9 mph /  19.2 km/h 11.9 mph /  19.2 km/h 49 % 0.0 in /  0 mm
10:59 7.0 °F /  -13.9 °C -3.0 °F /  -19.4 °C 1012.8 in /  34293.4 hPa West 16.9 mph /  27.2 km/h 16.9 mph /  27.2 km/h 49 % 0.0 in /  0 mm
11:04 6.9 °F /  -13.9 °C -2.8 °F /  -19.3 °C 1012.8 in /  34293.4 hPa West 7.4 mph /  11.9 km/h 10.0 mph /  16.1 km/h 50 % 0.0 in /  0 mm
11:09 6.7 °F /  -14.1 °C -3.0 °F /  -19.4 °C 1012.8 in /  34293.4 hPa WNW 11.1 mph /  17.9 km/h 11.1 mph /  17.9 km/h 50 % 0.0 in /  0 mm
11:14 6.8 °F /  -14 °C -2.9 °F /  -19.4 °C 1012.8 in /  34293.4 hPa WSW 11.1 mph /  17.9 km/h 11.1 mph /  17.9 km/h 50 % 0.0 in /  0 mm
11:19 6.8 °F /  -14 °C -2.9 °F /  -19.4 °C 1012.8 in /  34293.4 hPa SSW 13.0 mph /  20.9 km/h 13.0 mph /  20.9 km/h 50 % 0.0 in /  0 mm
11:24 7.0 °F /  -13.9 °C -2.7 °F /  -19.3 °C 1012.8 in /  34293.4 hPa WSW 13.0 mph /  20.9 km/h 13.0 mph /  20.9 km/h 50 % 0.0 in /  0 mm
11:29 7.0 °F /  -13.9 °C -2.7 °F /  -19.3 °C 1011.7 in /  34256.2 hPa West 13.0 mph /  20.9 km/h 13.0 mph /  20.9 km/h 50 % 0.0 in /  0 mm
11:34 7.2 °F /  -13.8 °C -2.6 °F /  -19.2 °C 1011.7 in /  34256.2 hPa SW 11.1 mph /  17.9 km/h 11.1 mph /  17.9 km/h 50 % 0.0 in /  0 mm
11:39 7.3 °F /  -13.7 °C -2.4 °F /  -19.1 °C 1011.7 in /  34256.2 hPa NW 13.0 mph /  20.9 km/h 13.0 mph /  20.9 km/h 50 % 0.0 in /  0 mm
11:44 7.6 °F /  -13.6 °C -2.2 °F /  -19 °C 1011.7 in /  34256.2 hPa West 13.0 mph /  20.9 km/h 13.0 mph /  20.9 km/h 50 % 0.0 in /  0 mm
11:49 7.6 °F /  -13.6 °C -2.2 °F /  -19 °C 1011.7 in /  34256.2 hPa WSW 14.8 mph /  23.8 km/h 14.8 mph /  23.8 km/h 50 % 0.0 in /  0 mm
11:54 7.8 °F /  -13.4 °C -2.0 °F /  -18.9 °C 1011.7 in /  34256.2 hPa SSW 13.0 mph /  20.9 km/h 13.0 mph /  20.9 km/h 50 % 0.0 in /  0 mm
11:59 7.9 °F /  -13.4 °C -1.9 °F /  -18.8 °C 1011.7 in /  34256.2 hPa WSW 13.0 mph /  20.9 km/h 13.0 mph /  20.9 km/h 50 % 0.0 in /  0 mm
12:04 8.0 °F /  -13.3 °C -1.8 °F /  -18.8 °C 1011.7 in /  34256.2 hPa WSW 15.8 mph /  25.4 km/h 15.8 mph /  25.4 km/h 50 % 0.0 in /  0 mm
12:09 7.4 °F /  -13.7 °C -2.3 °F /  -19.1 °C 1011.7 in /  34256.2 hPa WSW 13.0 mph /  20.9 km/h 13.0 mph /  20.9 km/h 50 % 0.0 in /  0 mm
12:14 7.4 °F /  -13.7 °C -2.3 °F /  -19.1 °C 1011.7 in /  34256.2 hPa SW 16.7 mph /  26.9 km/h 16.7 mph /  26.9 km/h 50 % 0.0 in /  0 mm
12:19 7.4 °F /  -13.7 °C -2.3 °F /  -19.1 °C 1011.7 in /  34256.2 hPa WNW 22.2 mph /  35.7 km/h 22.2 mph /  35.7 km/h 50 % 0.0 in /  0 mm
12:24 7.3 °F /  -13.7 °C -2.4 °F /  -19.1 °C 1011.7 in /  34256.2 hPa WNW 22.2 mph /  35.7 km/h 22.2 mph /  35.7 km/h 50 % 0.0 in /  0 mm
12:29 7.5 °F /  -13.6 °C -2.3 °F /  -19.1 °C 1011.7 in /  34256.2 hPa WSW 14.8 mph /  23.8 km/h 14.8 mph /  23.8 km/h 50 % 0.0 in /  0 mm
12:34 7.5 °F /  -13.6 °C -2.3 °F /  -19.1 °C 1011.7 in /  34256.2 hPa West 24.1 mph /  38.8 km/h 24.1 mph /  38.8 km/h 50 % 0.0 in /  0 mm
12:39 7.9 °F /  -13.4 °C -1.9 °F /  -18.8 °C 1011.7 in /  34256.2 hPa WSW 14.8 mph /  23.8 km/h 14.8 mph /  23.8 km/h 50 % 0.0 in /  0 mm
12:44 8.0 °F /  -13.3 °C -1.8 °F /  -18.8 °C 1010.7 in /  34222.3 hPa WSW 25.9 mph /  41.7 km/h 25.9 mph /  41.7 km/h 50 % 0.0 in /  0 mm
12:49 8.1 °F /  -13.3 °C -1.7 °F /  -18.7 °C 1010.7 in /  34222.3 hPa SW 16.7 mph /  26.9 km/h 16.7 mph /  26.9 km/h 50 % 0.0 in /  0 mm
12:54 8.2 °F /  -13.2 °C -1.6 °F /  -18.7 °C 1010.7 in /  34222.3 hPa West 20.4 mph /  32.8 km/h 20.4 mph /  32.8 km/h 50 % 0.0 in /  0 mm
12:59 8.5 °F /  -13.1 °C -1.3 °F /  -18.5 °C 1011.7 in /  34256.2 hPa WNW 20.4 mph /  32.8 km/h 20.4 mph /  32.8 km/h 50 % 0.0 in /  0 mm
13:04 8.4 °F /  -13.1 °C -1.7 °F /  -18.7 °C 1011.7 in /  34256.2 hPa NW 9.5 mph /  15.3 km/h 9.5 mph /  15.3 km/h 49 % 0.0 in /  0 mm
13:09 8.3 °F /  -13.2 °C -1.8 °F /  -18.8 °C 1011.7 in /  34256.2 hPa West 13.0 mph /  20.9 km/h 13.0 mph /  20.9 km/h 49 % 0.0 in /  0 mm
13:14 8.1 °F /  -13.3 °C -2.0 °F /  -18.9 °C 1010.7 in /  34222.3 hPa WSW 11.1 mph /  17.9 km/h 11.1 mph /  17.9 km/h 49 % 0.0 in /  0 mm
13:19 7.8 °F /  -13.4 °C -2.3 °F /  -19.1 °C 1010.7 in /  34222.3 hPa WSW 9.3 mph /  15 km/h 9.3 mph /  15 km/h 49 % 0.0 in /  0 mm
13:24 7.8 °F /  -13.4 °C -2.0 °F /  -18.9 °C 1010.7 in /  34222.3 hPa West 9.3 mph /  15 km/h 9.3 mph /  15 km/h 50 % 0.0 in /  0 mm
13:29 7.7 °F /  -13.5 °C -2.1 °F /  -18.9 °C 1011.7 in /  34256.2 hPa WSW 7.4 mph /  11.9 km/h 7.4 mph /  11.9 km/h 50 % 0.0 in /  0 mm
13:34 7.7 °F /  -13.5 °C -2.1 °F /  -18.9 °C 1011.7 in /  34256.2 hPa West 9.3 mph /  15 km/h 9.3 mph /  15 km/h 50 % 0.0 in /  0 mm
13:39 8.1 °F /  -13.3 °C -1.7 °F /  -18.7 °C 1011.7 in /  34256.2 hPa WSW 9.3 mph /  15 km/h 9.3 mph /  15 km/h 50 % 0.0 in /  0 mm
13:44 8.8 °F /  -12.9 °C -0.8 °F /  -18.2 °C 1011.7 in /  34256.2 hPa WSW 7.4 mph /  11.9 km/h 7.4 mph /  11.9 km/h 51 % 0.0 in /  0 mm
13:49 8.9 °F /  -12.8 °C -0.7 °F /  -18.2 °C 1011.7 in /  34256.2 hPa NNW 5.6 mph /  9 km/h 5.6 mph /  9 km/h 51 % 0.0 in /  0 mm
13:54 8.8 °F /  -12.9 °C -0.8 °F /  -18.2 °C 1011.7 in /  34256.2 hPa West 5.6 mph /  9 km/h 5.6 mph /  9 km/h 51 % 0.0 in /  0 mm
13:59 8.8 °F /  -12.9 °C -0.8 °F /  -18.2 °C 1010.7 in /  34222.3 hPa SSW 9.3 mph /  15 km/h 9.3 mph /  15 km/h 51 % 0.0 in /  0 mm
14:04 8.7 °F /  -12.9 °C -0.9 °F /  -18.3 °C 1010.7 in /  34222.3 hPa WSW 9.3 mph /  15 km/h 9.3 mph /  15 km/h 51 % 0.0 in /  0 mm
14:09 8.7 °F /  -12.9 °C -1.2 °F /  -18.4 °C 1010.7 in /  34222.3 hPa WNW 16.7 mph /  26.9 km/h 16.7 mph /  26.9 km/h 50 % 0.0 in /  0 mm
14:14 8.8 °F /  -12.9 °C -1.1 °F /  -18.4 °C 1010.0 in /  34198.6 hPa WSW 9.3 mph /  15 km/h 9.3 mph /  15 km/h 50 % 0.0 in /  0 mm
14:19 9.0 °F /  -12.8 °C -0.6 °F /  -18.1 °C 1010.0 in /  34198.6 hPa West 16.7 mph /  26.9 km/h 16.7 mph /  26.9 km/h 51 % 0.0 in /  0 mm
14:24 9.2 °F /  -12.7 °C -0.4 °F /  -18 °C 1010.0 in /  34198.6 hPa WNW 7.4 mph /  11.9 km/h 7.4 mph /  11.9 km/h 51 % 0.0 in /  0 mm
14:29 9.1 °F /  -12.7 °C -0.8 °F /  -18.2 °C 1010.0 in /  34198.6 hPa WNW 13.0 mph /  20.9 km/h 13.0 mph /  20.9 km/h 50 % 0.0 in /  0 mm
14:34 9.1 °F /  -12.7 °C -0.8 °F /  -18.2 °C 1010.0 in /  34198.6 hPa WSW 14.8 mph /  23.8 km/h 14.8 mph /  23.8 km/h 50 % 0.0 in /  0 mm
14:39 9.1 °F /  -12.7 °C -0.8 °F /  -18.2 °C 1010.0 in /  34198.6 hPa West 11.1 mph /  17.9 km/h 11.1 mph /  17.9 km/h 50 % 0.0 in /  0 mm
14:44 9.1 °F /  -12.7 °C -0.8 °F /  -18.2 °C 1010.0 in /  34198.6 hPa WSW 9.7 mph /  15.6 km/h 9.7 mph /  15.6 km/h 50 % 0.0 in /  0 mm
14:49 9.0 °F /  -12.8 °C -0.9 °F /  -18.3 °C 1010.0 in /  34198.6 hPa WSW 7.4 mph /  11.9 km/h 7.4 mph /  11.9 km/h 50 % 0.0 in /  0 mm
14:54 9.2 °F /  -12.7 °C -0.7 °F /  -18.2 °C 1010.0 in /  34198.6 hPa WSW 13.0 mph /  20.9 km/h 13.0 mph /  20.9 km/h 50 % 0.0 in /  0 mm
14:59 9.2 °F /  -12.7 °C -0.7 °F /  -18.2 °C 1010.0 in /  34198.6 hPa SW 13.0 mph /  20.9 km/h 13.0 mph /  20.9 km/h 50 % 0.0 in /  0 mm
15:04 9.3 °F /  -12.6 °C -0.6 °F /  -18.1 °C 1010.0 in /  34198.6 hPa WSW 10.3 mph /  16.6 km/h 10.3 mph /  16.6 km/h 50 % 0.0 in /  0 mm
15:09 9.4 °F /  -12.6 °C -0.2 °F /  -17.9 °C 1010.0 in /  34198.6 hPa SSW 13.0 mph /  20.9 km/h 13.0 mph /  20.9 km/h 51 % 0.0 in /  0 mm
15:14 9.5 °F /  -12.5 °C -0.2 °F /  -17.9 °C 1010.0 in /  34198.6 hPa West 15.1 mph /  24.3 km/h 15.1 mph /  24.3 km/h 51 % 0.0 in /  0 mm
15:19 9.6 °F /  -12.4 °C -0.1 °F /  -17.8 °C 1010.0 in /  34198.6 hPa WSW 15.6 mph /  25.1 km/h 15.6 mph /  25.1 km/h 51 % 0.0 in /  0 mm
15:24 9.6 °F /  -12.4 °C -0.1 °F /  -17.8 °C 1010.0 in /  34198.6 hPa WSW 13.0 mph /  20.9 km/h 13.0 mph /  20.9 km/h 51 % 0.0 in /  0 mm
15:29 9.6 °F /  -12.4 °C -0.1 °F /  -17.8 °C 1009.0 in /  34164.7 hPa West 9.3 mph /  15 km/h 9.3 mph /  15 km/h 51 % 0.0 in /  0 mm
15:34 9.6 °F /  -12.4 °C -0.1 °F /  -17.8 °C 1009.0 in /  34164.7 hPa SSW 9.3 mph /  15 km/h 9.3 mph /  15 km/h 51 % 0.0 in /  0 mm
15:39 9.6 °F /  -12.4 °C -0.1 °F /  -17.8 °C 1009.0 in /  34164.7 hPa West 13.0 mph /  20.9 km/h 13.0 mph /  20.9 km/h 51 % 0.0 in /  0 mm
15:44 9.7 °F /  -12.4 °C 0.1 °F /  -17.7 °C 1009.0 in /  34164.7 hPa NNW 7.4 mph /  11.9 km/h 7.4 mph /  11.9 km/h 51 % 0.0 in /  0 mm
15:49 9.7 °F /  -12.4 °C 0.1 °F /  -17.7 °C 1009.0 in /  34164.7 hPa SSW 13.0 mph /  20.9 km/h 13.0 mph /  20.9 km/h 51 % 0.0 in /  0 mm
15:54 9.8 °F /  -12.3 °C 0.1 °F /  -17.7 °C 1009.0 in /  34164.7 hPa West 7.4 mph /  11.9 km/h 7.4 mph /  11.9 km/h 51 % 0.0 in /  0 mm
15:59 10.0 °F /  -12.2 °C 0.3 °F /  -17.6 °C 1009.0 in /  34164.7 hPa SW 5.6 mph /  9 km/h 5.6 mph /  9 km/h 51 % 0.0 in /  0 mm
16:04 10.2 °F /  -12.1 °C 0.2 °F /  -17.7 °C 1009.0 in /  34164.7 hPa WSW 13.0 mph /  20.9 km/h 13.0 mph /  20.9 km/h 50 % 0.0 in /  0 mm
16:09 10.6 °F /  -11.9 °C 0.9 °F /  -17.3 °C 1009.0 in /  34164.7 hPa WSW 9.3 mph /  15 km/h 9.3 mph /  15 km/h 51 % 0.0 in /  0 mm
16:14 10.7 °F /  -11.8 °C 0.9 °F /  -17.3 °C 1009.0 in /  34164.7 hPa WSW 11.1 mph /  17.9 km/h 11.1 mph /  17.9 km/h 51 % 0.0 in /  0 mm
16:19 11.0 °F /  -11.7 °C 0.9 °F /  -17.3 °C 1009.0 in /  34164.7 hPa SW 14.8 mph /  23.8 km/h 14.8 mph /  23.8 km/h 50 % 0.0 in /  0 mm
16:24 11.1 °F /  -11.6 °C 1.1 °F /  -17.2 °C 1009.0 in /  34164.7 hPa West 9.3 mph /  15 km/h 9.3 mph /  15 km/h 50 % 0.0 in /  0 mm
16:29 10.9 °F /  -11.7 °C 0.9 °F /  -17.3 °C 1009.0 in /  34164.7 hPa SW 7.4 mph /  11.9 km/h 7.4 mph /  11.9 km/h 50 % 0.0 in /  0 mm
16:34 11.1 °F /  -11.6 °C 1.1 °F /  -17.2 °C 1009.0 in /  34164.7 hPa NW 11.1 mph /  17.9 km/h 11.1 mph /  17.9 km/h 50 % 0.0 in /  0 mm
16:39 11.1 °F /  -11.6 °C 1.1 °F /  -17.2 °C 1009.0 in /  34164.7 hPa West 7.9 mph /  12.7 km/h 7.9 mph /  12.7 km/h 50 % 0.0 in /  0 mm
16:44 11.2 °F /  -11.6 °C 1.2 °F /  -17.1 °C 1009.0 in /  34164.7 hPa WNW 7.4 mph /  11.9 km/h 7.4 mph /  11.9 km/h 50 % 0.0 in /  0 mm
16:49 11.1 °F /  -11.6 °C 1.1 °F /  -17.2 °C 1009.0 in /  34164.7 hPa SSW 13.0 mph /  20.9 km/h 13.0 mph /  20.9 km/h 50 % 0.0 in /  0 mm
16:54 11.1 °F /  -11.6 °C 1.1 °F /  -17.2 °C 1009.0 in /  34164.7 hPa West 9.3 mph /  15 km/h 9.3 mph /  15 km/h 50 % 0.0 in /  0 mm
16:59 11.0 °F /  -11.7 °C 0.7 °F /  -17.4 °C 1008.0 in /  34130.9 hPa West 11.1 mph /  17.9 km/h 11.1 mph /  17.9 km/h 49 % 0.0 in /  0 mm
17:04 11.0 °F /  -11.7 °C 0.7 °F /  -17.4 °C 1008.0 in /  34130.9 hPa WSW 13.0 mph /  20.9 km/h 13.0 mph /  20.9 km/h 49 % 0.0 in /  0 mm
17:09 10.9 °F /  -11.7 °C 0.6 °F /  -17.4 °C 1008.0 in /  34130.9 hPa West 15.6 mph /  25.1 km/h 15.6 mph /  25.1 km/h 49 % 0.0 in /  0 mm
17:14 10.8 °F /  -11.8 °C 0.2 °F /  -17.7 °C 1009.0 in /  34164.7 hPa WSW 13.0 mph /  20.9 km/h 13.0 mph /  20.9 km/h 48 % 0.0 in /  0 mm
17:19 10.8 °F /  -11.8 °C 0.5 °F /  -17.5 °C 1009.0 in /  34164.7 hPa WSW 11.1 mph /  17.9 km/h 11.1 mph /  17.9 km/h 49 % 0.0 in /  0 mm
17:24 10.7 °F /  -11.8 °C 0.4 °F /  -17.6 °C 1009.0 in /  34164.7 hPa WSW 9.5 mph /  15.3 km/h 9.5 mph /  15.3 km/h 49 % 0.0 in /  0 mm
17:29 10.6 °F /  -11.9 °C 0.3 °F /  -17.6 °C 1008.0 in /  34130.9 hPa SSW 5.6 mph /  9 km/h 5.6 mph /  9 km/h 49 % 0.0 in /  0 mm
17:34 10.5 °F /  -11.9 °C 0.2 °F /  -17.7 °C 1008.0 in /  34130.9 hPa SW 7.4 mph /  11.9 km/h 7.4 mph /  11.9 km/h 49 % 0.0 in /  0 mm
17:39 10.4 °F /  -12 °C 0.1 °F /  -17.7 °C 1008.0 in /  34130.9 hPa SSW 9.3 mph /  15 km/h 9.3 mph /  15 km/h 49 % 0.0 in /  0 mm
17:44 10.1 °F /  -12.2 °C -0.2 °F /  -17.9 °C 1009.0 in /  34164.7 hPa SW 11.1 mph /  17.9 km/h 11.1 mph /  17.9 km/h 49 % 0.0 in /  0 mm
17:49 9.9 °F /  -12.3 °C -0.3 °F /  -17.9 °C 1009.0 in /  34164.7 hPa SSW 7.4 mph /  11.9 km/h 7.4 mph /  11.9 km/h 49 % 0.0 in /  0 mm
17:54 9.8 °F /  -12.3 °C -0.4 °F /  -18 °C 1009.0 in /  34164.7 hPa WNW 11.1 mph /  17.9 km/h 11.1 mph /  17.9 km/h 49 % 0.0 in /  0 mm
17:59 9.8 °F /  -12.3 °C -0.4 °F /  -18 °C 1009.0 in /  34164.7 hPa West 9.3 mph /  15 km/h 9.3 mph /  15 km/h 49 % 0.0 in /  0 mm
18:04 9.7 °F /  -12.4 °C -0.5 °F /  -18.1 °C 1009.0 in /  34164.7 hPa WSW 9.3 mph /  15 km/h 9.3 mph /  15 km/h 49 % 0.0 in /  0 mm
18:09 9.5 °F /  -12.5 °C -0.7 °F /  -18.2 °C 1009.0 in /  34164.7 hPa West 9.3 mph /  15 km/h 9.3 mph /  15 km/h 49 % 0.0 in /  0 mm
18:14 9.4 °F /  -12.6 °C -0.8 °F /  -18.2 °C 1009.0 in /  34164.7 hPa WSW 5.6 mph /  9 km/h 5.6 mph /  9 km/h 49 % 0.0 in /  0 mm
18:19 9.2 °F /  -12.7 °C -1.0 °F /  -18.3 °C 1009.0 in /  34164.7 hPa WSW 7.9 mph /  12.7 km/h 7.9 mph /  12.7 km/h 49 % 0.0 in /  0 mm
18:24 9.2 °F /  -12.7 °C -1.0 °F /  -18.3 °C 1009.0 in /  34164.7 hPa WNW 5.6 mph /  9 km/h 5.6 mph /  9 km/h 49 % 0.0 in /  0 mm
18:29 9.1 °F /  -12.7 °C -1.1 °F /  -18.4 °C 1009.0 in /  34164.7 hPa SW 9.3 mph /  15 km/h 9.3 mph /  15 km/h 49 % 0.0 in /  0 mm
18:34 9.1 °F /  -12.7 °C -1.1 °F /  -18.4 °C 1009.0 in /  34164.7 hPa West 13.7 mph /  22 km/h 13.7 mph /  22 km/h 49 % 0.0 in /  0 mm
18:39 9.0 °F /  -12.8 °C -0.9 °F /  -18.3 °C 1009.0 in /  34164.7 hPa West 9.3 mph /  15 km/h 9.3 mph /  15 km/h 50 % 0.0 in /  0 mm
18:44 8.9 °F /  -12.8 °C -1.0 °F /  -18.3 °C 1009.0 in /  34164.7 hPa WSW 9.7 mph /  15.6 km/h 9.7 mph /  15.6 km/h 50 % 0.0 in /  0 mm
18:49 8.9 °F /  -12.8 °C -1.0 °F /  -18.3 °C 1009.0 in /  34164.7 hPa WSW 7.4 mph /  11.9 km/h 7.4 mph /  11.9 km/h 50 % 0.0 in /  0 mm
18:54 8.8 °F /  -12.9 °C -1.1 °F /  -18.4 °C 1009.0 in /  34164.7 hPa SW 7.4 mph /  11.9 km/h 7.4 mph /  11.9 km/h 50 % 0.0 in /  0 mm
18:59 8.7 °F /  -12.9 °C -1.2 °F /  -18.4 °C 1009.0 in /  34164.7 hPa WNW 7.4 mph /  11.9 km/h 7.4 mph /  11.9 km/h 50 % 0.0 in /  0 mm
19:04 8.7 °F /  -12.9 °C -1.2 °F /  -18.4 °C 1009.0 in /  34164.7 hPa WSW 9.3 mph /  15 km/h 9.3 mph /  15 km/h 50 % 0.0 in /  0 mm
19:09 8.7 °F /  -12.9 °C -1.2 °F /  -18.4 °C 1009.0 in /  34164.7 hPa WSW 9.3 mph /  15 km/h 9.3 mph /  15 km/h 50 % 0.0 in /  0 mm
19:14 8.6 °F /  -13 °C -1.3 °F /  -18.5 °C 1009.0 in /  34164.7 hPa WSW 5.6 mph /  9 km/h 5.6 mph /  9 km/h 50 % 0.0 in /  0 mm
19:19 8.6 °F /  -13 °C -1.3 °F /  -18.5 °C 1009.0 in /  34164.7 hPa WSW 6.9 mph /  11.1 km/h 6.9 mph /  11.1 km/h 50 % 0.0 in /  0 mm
19:24 8.5 °F /  -13.1 °C -1.3 °F /  -18.5 °C 1009.0 in /  34164.7 hPa WSW 9.3 mph /  15 km/h 9.3 mph /  15 km/h 50 % 0.0 in /  0 mm
19:29 8.5 °F /  -13.1 °C -1.1 °F /  -18.4 °C 1009.0 in /  34164.7 hPa West 7.4 mph /  11.9 km/h 7.4 mph /  11.9 km/h 51 % 0.0 in /  0 mm
19:34 8.5 °F /  -13.1 °C -1.1 °F /  -18.4 °C 1009.0 in /  34164.7 hPa WNW 7.4 mph /  11.9 km/h 7.4 mph /  11.9 km/h 51 % 0.0 in /  0 mm
19:39 8.4 °F /  -13.1 °C -1.2 °F /  -18.4 °C 1009.0 in /  34164.7 hPa WSW 7.4 mph /  11.9 km/h 7.4 mph /  11.9 km/h 51 % 0.0 in /  0 mm
19:44 8.3 °F /  -13.2 °C -1.3 °F /  -18.5 °C 1009.0 in /  34164.7 hPa West 9.3 mph /  15 km/h 9.3 mph /  15 km/h 51 % 0.0 in /  0 mm
19:49 8.3 °F /  -13.2 °C -1.3 °F /  -18.5 °C 1009.0 in /  34164.7 hPa West 7.4 mph /  11.9 km/h 7.4 mph /  11.9 km/h 51 % 0.0 in /  0 mm
19:54 8.3 °F /  -13.2 °C -1.3 °F /  -18.5 °C 1009.0 in /  34164.7 hPa WSW 7.4 mph /  11.9 km/h 7.4 mph /  11.9 km/h 51 % 0.0 in /  0 mm
19:59 8.3 °F /  -13.2 °C -1.3 °F /  -18.5 °C 1010.0 in /  34198.6 hPa West 11.1 mph /  17.9 km/h 11.1 mph /  17.9 km/h 51 % 0.0 in /  0 mm
20:04 8.2 °F /  -13.2 °C -1.3 °F /  -18.5 °C 1010.0 in /  34198.6 hPa SSW 7.4 mph /  11.9 km/h 7.4 mph /  11.9 km/h 51 % 0.0 in /  0 mm
20:09 8.1 °F /  -13.3 °C -1.2 °F /  -18.4 °C 1010.0 in /  34198.6 hPa SW 9.3 mph /  15 km/h 9.3 mph /  15 km/h 52 % 0.0 in /  0 mm
20:14 8.2 °F /  -13.2 °C -1.1 °F /  -18.4 °C 1010.0 in /  34198.6 hPa WSW 11.1 mph /  17.9 km/h 11.1 mph /  17.9 km/h 52 % 0.0 in /  0 mm
20:19 8.2 °F /  -13.2 °C -1.1 °F /  -18.4 °C 1010.0 in /  34198.6 hPa WSW 13.0 mph /  20.9 km/h 13.0 mph /  20.9 km/h 52 % 0.0 in /  0 mm
20:24 8.1 °F /  -13.3 °C -1.2 °F /  -18.4 °C 1010.0 in /  34198.6 hPa SSW 7.6 mph /  12.2 km/h 7.6 mph /  12.2 km/h 52 % 0.0 in /  0 mm
20:29 8.2 °F /  -13.2 °C -1.1 °F /  -18.4 °C 1010.0 in /  34198.6 hPa WSW 9.3 mph /  15 km/h 9.3 mph /  15 km/h 52 % 0.0 in /  0 mm
20:34 8.0 °F /  -13.3 °C -1.3 °F /  -18.5 °C 1010.0 in /  34198.6 hPa WNW 9.3 mph /  15 km/h 9.3 mph /  15 km/h 52 % 0.0 in /  0 mm
20:39 8.0 °F /  -13.3 °C -1.0 °F /  -18.3 °C 1010.0 in /  34198.6 hPa WSW 16.7 mph /  26.9 km/h 16.7 mph /  26.9 km/h 53 % 0.0 in /  0 mm
20:44 8.0 °F /  -13.3 °C -1.0 °F /  -18.3 °C 1009.0 in /  34164.7 hPa WSW 9.3 mph /  15 km/h 9.3 mph /  15 km/h 53 % 0.0 in /  0 mm
20:49 8.0 °F /  -13.3 °C -1.0 °F /  -18.3 °C 1009.0 in /  34164.7 hPa WSW 9.3 mph /  15 km/h 9.3 mph /  15 km/h 53 % 0.0 in /  0 mm
20:54 8.2 °F /  -13.2 °C -0.6 °F /  -18.1 °C 1009.0 in /  34164.7 hPa West 24.1 mph /  38.8 km/h 24.1 mph /  38.8 km/h 54 % 0.0 in /  0 mm
20:59 8.2 °F /  -13.2 °C -0.6 °F /  -18.1 °C 1009.0 in /  34164.7 hPa West 14.8 mph /  23.8 km/h 14.8 mph /  23.8 km/h 54 % 0.0 in /  0 mm
21:04 8.2 °F /  -13.2 °C -0.3 °F /  -17.9 °C 1009.0 in /  34164.7 hPa SSW 9.3 mph /  15 km/h 9.3 mph /  15 km/h 55 % 0.0 in /  0 mm
21:09 8.1 °F /  -13.3 °C -0.4 °F /  -18 °C 1009.0 in /  34164.7 hPa West 17.5 mph /  28.2 km/h 17.5 mph /  28.2 km/h 55 % 0.0 in /  0 mm
21:14 8.2 °F /  -13.2 °C -0.3 °F /  -17.9 °C 1009.0 in /  34164.7 hPa West 14.8 mph /  23.8 km/h 14.8 mph /  23.8 km/h 55 % 0.0 in /  0 mm
21:19 8.1 °F /  -13.3 °C -0.2 °F /  -17.9 °C 1009.0 in /  34164.7 hPa SSW 9.5 mph /  15.3 km/h 9.5 mph /  15.3 km/h 56 % 0.0 in /  0 mm
21:24 8.1 °F /  -13.3 °C -0.2 °F /  -17.9 °C 1009.0 in /  34164.7 hPa SSW 13.0 mph /  20.9 km/h 13.0 mph /  20.9 km/h 56 % 0.0 in /  0 mm
21:29 8.0 °F /  -13.3 °C -0.3 °F /  -17.9 °C 1009.0 in /  34164.7 hPa WNW 7.4 mph /  11.9 km/h 7.4 mph /  11.9 km/h 56 % 0.0 in /  0 mm
21:34 7.9 °F /  -13.4 °C -0.3 °F /  -17.9 °C 1009.0 in /  34164.7 hPa WSW 13.0 mph /  20.9 km/h 13.0 mph /  20.9 km/h 56 % 0.0 in /  0 mm
21:39 7.9 °F /  -13.4 °C -0.3 °F /  -17.9 °C 1009.0 in /  34164.7 hPa WSW 7.4 mph /  11.9 km/h 7.4 mph /  11.9 km/h 56 % 0.0 in /  0 mm
21:44 7.8 °F /  -13.4 °C -0.4 °F /  -18 °C 1009.0 in /  34164.7 hPa WSW 9.3 mph /  15 km/h 9.3 mph /  15 km/h 56 % 0.0 in /  0 mm
21:49 7.8 °F /  -13.4 °C -0.4 °F /  -18 °C 1009.0 in /  34164.7 hPa WSW 9.3 mph /  15 km/h 9.3 mph /  15 km/h 56 % 0.0 in /  0 mm
21:54 7.6 °F /  -13.6 °C -0.6 °F /  -18.1 °C 1009.0 in /  34164.7 hPa SSW 3.7 mph /  6 km/h 3.7 mph /  6 km/h 56 % 0.0 in /  0 mm
21:59 7.6 °F /  -13.6 °C -0.4 °F /  -18 °C 1009.0 in /  34164.7 hPa WSW 5.6 mph /  9 km/h 5.6 mph /  9 km/h 57 % 0.0 in /  0 mm
22:04 7.5 °F /  -13.6 °C -0.5 °F /  -18.1 °C 1009.0 in /  34164.7 hPa West 3.7 mph /  6 km/h 3.7 mph /  6 km/h 57 % 0.0 in /  0 mm
22:09 7.5 °F /  -13.6 °C -0.5 °F /  -18.1 °C 1009.0 in /  34164.7 hPa WSW 5.6 mph /  9 km/h 5.6 mph /  9 km/h 57 % 0.0 in /  0 mm
22:14 7.5 °F /  -13.6 °C -0.5 °F /  -18.1 °C 1009.0 in /  34164.7 hPa West 5.6 mph /  9 km/h 5.6 mph /  9 km/h 57 % 0.0 in /  0 mm
22:19 7.3 °F /  -13.7 °C -0.7 °F /  -18.2 °C 1009.0 in /  34164.7 hPa SW 3.7 mph /  6 km/h 3.7 mph /  6 km/h 57 % 0.0 in /  0 mm
22:24 7.2 °F /  -13.8 °C -0.5 °F /  -18.1 °C 1009.0 in /  34164.7 hPa South 1.9 mph /  3.1 km/h 1.9 mph /  3.1 km/h 58 % 0.0 in /  0 mm
22:29 7.2 °F /  -13.8 °C -0.5 °F /  -18.1 °C 1010.0 in /  34198.6 hPa West 3.7 mph /  6 km/h 3.7 mph /  6 km/h 58 % 0.0 in /  0 mm
22:34 7.3 °F /  -13.7 °C -0.4 °F /  -18 °C 1010.0 in /  34198.6 hPa WSW 5.6 mph /  9 km/h 5.6 mph /  9 km/h 58 % 0.0 in /  0 mm
22:39 7.4 °F /  -13.7 °C -0.3 °F /  -17.9 °C 1010.0 in /  34198.6 hPa WSW 9.3 mph /  15 km/h 9.3 mph /  15 km/h 58 % 0.0 in /  0 mm
22:44 7.3 °F /  -13.7 °C -0.4 °F /  -18 °C 1009.0 in /  34164.7 hPa WNW 7.4 mph /  11.9 km/h 7.4 mph /  11.9 km/h 58 % 0.0 in /  0 mm
22:49 7.2 °F /  -13.8 °C -0.5 °F /  -18.1 °C 1009.0 in /  34164.7 hPa WSW 3.9 mph /  6.3 km/h 3.9 mph /  6.3 km/h 58 % 0.0 in /  0 mm
22:54 7.2 °F /  -13.8 °C -0.5 °F /  -18.1 °C 1009.0 in /  34164.7 hPa WSW 4.2 mph /  6.8 km/h 4.2 mph /  6.8 km/h 58 % 0.0 in /  0 mm
22:59 7.1 °F /  -13.8 °C -0.6 °F /  -18.1 °C 1010.0 in /  34198.6 hPa West 6.4 mph /  10.3 km/h 6.4 mph /  10.3 km/h 58 % 0.0 in /  0 mm
23:04 7.1 °F /  -13.8 °C -0.6 °F /  -18.1 °C 1010.0 in /  34198.6 hPa West 9.3 mph /  15 km/h 9.3 mph /  15 km/h 58 % 0.0 in /  0 mm
23:09 7.0 °F /  -13.9 °C -0.5 °F /  -18.1 °C 1010.0 in /  34198.6 hPa SW 7.4 mph /  11.9 km/h 7.4 mph /  11.9 km/h 59 % 0.0 in /  0 mm
23:14 7.0 °F /  -13.9 °C -0.5 °F /  -18.1 °C 1009.0 in /  34164.7 hPa West 5.6 mph /  9 km/h 5.6 mph /  9 km/h 59 % 0.0 in /  0 mm
23:19 6.9 °F /  -13.9 °C -0.3 °F /  -17.9 °C 1009.0 in /  34164.7 hPa SW 3.7 mph /  6 km/h 3.7 mph /  6 km/h 60 % 0.0 in /  0 mm
23:24 6.9 °F /  -13.9 °C -0.6 °F /  -18.1 °C 1009.0 in /  34164.7 hPa WSW 7.4 mph /  11.9 km/h 7.4 mph /  11.9 km/h 59 % 0.0 in /  0 mm
23:29 6.9 °F /  -13.9 °C -0.3 °F /  -17.9 °C 1010.0 in /  34198.6 hPa WSW 4.2 mph /  6.8 km/h 4.2 mph /  6.8 km/h 60 % 0.0 in /  0 mm
23:34 6.7 °F /  -14.1 °C -0.5 °F /  -18.1 °C 1010.0 in /  34198.6 hPa WSW 5.6 mph /  9 km/h 5.6 mph /  9 km/h 60 % 0.0 in /  0 mm
23:39 6.8 °F /  -14 °C -0.4 °F /  -18 °C 1010.0 in /  34198.6 hPa WNW 5.6 mph /  9 km/h 5.6 mph /  9 km/h 60 % 0.0 in /  0 mm
23:44 6.8 °F /  -14 °C -0.4 °F /  -18 °C 1009.0 in /  34164.7 hPa WNW 5.6 mph /  9 km/h 5.6 mph /  9 km/h 60 % 0.0 in /  0 mm
23:49 6.8 °F /  -14 °C -0.4 °F /  -18 °C 1009.0 in /  34164.7 hPa West 5.6 mph /  9 km/h 5.6 mph /  9 km/h 60 % 0.0 in /  0 mm
23:54 6.8 °F /  -14 °C -0.4 °F /  -18 °C 1009.0 in /  34164.7 hPa WSW 7.4 mph /  11.9 km/h 7.4 mph /  11.9 km/h 60 % 0.0 in /  0 mm
23:59 6.9 °F /  -13.9 °C -0.1 °F /  -17.8 °C 1010.0 in /  34198.6 hPa WSW 4.2 mph /  6.8 km/h 4.2 mph /  6.8 km/h 61 % 0.0 in /  0 mm
Meteo Sesrovires
Elogis d' Weather Underground - 4 mb

Guio original per  Jim McMurry - jmcmurry@mwt.net Adaptat per a la plantilla per  Wim van der Kuil - Leuven-Template.eu

Trobareu la nostra informacio del temps tambe a:

Weather Underground

AWEKAS